Time;durP1;ratioP1;P1;durP2;ratioP2;P2;SDS_P1;SDS_P2;PMS_P1;PMS_P2;Temp;Humidity;BMP_temperature;BMP_pressure;BME280_temperature;BME280_humidity;BME280_pressure;Samples;Min_cycle;Max_cycle;Signal;HPM_P1;HPM_P2
2021/12/14 00:27:41;;;;;;;3.93;2.30;;;8.60;93.20;;;;;;4941541;28;20448;-79
2021/12/14 00:45:47;;;;;;;8.80;3.00;;;8.70;93.20;;;;;;5044137;22;20502;-87
2021/12/14 00:48:15;;;;;;;4.60;2.80;;;8.70;93.30;;;;;;5042387;28;20498;-87
2021/12/14 00:50:45;;;;;;;4.63;2.40;;;8.70;93.40;;;;;;5024618;28;20409;-87
2021/12/14 00:53:11;;;;;;;4.67;2.47;;;8.70;93.40;;;;;;5017601;28;20466;-87
2021/12/14 00:55:42;;;;;;;4.80;2.73;;;8.70;93.40;;;;;;5020297;28;20881;-87
2021/12/14 00:58:11;;;;;;;3.60;2.20;;;8.70;93.40;;;;;;5019045;28;20676;-87
2021/12/14 01:00:41;;;;;;;5.37;2.70;;;8.70;93.40;;;;;;5018747;28;20433;-88
2021/12/14 01:03:09;;;;;;;6.80;2.67;;;8.70;93.50;;;;;;5024504;28;20531;-90
2021/12/14 01:05:38;;;;;;;3.40;2.13;;;8.70;93.50;;;;;;5021440;28;20486;-90
2021/12/14 01:08:08;;;;;;;3.60;2.37;;;8.70;93.50;;;;;;5022223;28;20426;-86
2021/12/14 01:11:07;;;;;;;4.60;2.90;;;8.70;93.30;;;;;;5021216;28;20509;-88
2021/12/14 01:13:40;;;;;;;8.80;3.03;;;8.70;93.50;;;;;;5021573;28;20451;-86
2021/12/14 01:16:17;;;;;;;12.93;3.10;;;8.70;93.50;;;;;;5023001;28;20822;-87
2021/12/14 01:18:50;;;;;;;2.70;2.23;;;8.70;93.50;;;;;;5013458;28;20414;-88
2021/12/14 01:24:42;;;;;;;4.20;2.77;;;8.70;93.60;;;;;;4998337;28;20556;-88
2021/12/14 01:27:11;;;;;;;5.03;2.80;;;8.80;93.60;;;;;;4998151;28;20425;-88
2021/12/14 01:29:39;;;;;;;5.13;3.00;;;8.70;93.50;;;;;;4980462;28;20419;-88
2021/12/14 01:32:06;;;;;;;4.07;2.50;;;8.80;93.50;;;;;;4998443;28;20423;-88
2021/12/14 01:34:35;;;;;;;6.40;2.87;;;8.80;93.50;;;;;;4999922;28;20477;-88
2021/12/14 01:37:22;;;;;;;6.33;3.40;;;8.80;93.50;;;;;;5001150;28;20498;-89
2021/12/14 01:40:46;;;;;;;8.87;2.97;;;8.80;93.50;;;;;;4982766;28;20492;-87
2021/12/14 01:43:07;;;;;;;5.77;3.40;;;8.80;93.40;;;;;;4998419;28;20434;-87
2021/12/14 01:45:32;;;;;;;5.80;3.17;;;8.80;93.50;;;;;;4998539;28;20435;-87
2021/12/14 01:48:01;;;;;;;5.07;2.67;;;8.70;93.40;;;;;;5011857;28;20418;-86
2021/12/14 01:51:02;;;;;;;5.23;3.23;;;8.70;93.40;;;;;;4966977;28;20480;-86
2021/12/14 01:53:38;;;;;;;5.10;3.33;;;8.70;93.60;;;;;;4998944;28;20422;-89
2021/12/14 01:56:09;;;;;;;7.60;4.30;;;8.70;93.60;;;;;;5016837;28;20418;-87
2021/12/14 01:58:43;;;;;;;4.60;3.43;;;8.60;93.70;;;;;;5017020;28;20408;-87
2021/12/14 02:01:16;;;;;;;5.10;3.17;;;8.60;93.70;;;;;;5017301;28;20438;-86
2021/12/14 02:03:55;;;;;;;9.10;3.73;;;8.60;93.80;;;;;;5008483;28;20419;-86
2021/12/14 02:06:38;;;;;;;4.70;3.40;;;8.60;93.90;;;;;;4999014;28;20442;-87
2021/12/14 02:09:08;;;;;;;6.13;3.80;;;8.60;93.90;;;;;;5001439;28;20414;-86
2021/12/14 02:11:38;;;;;;;7.47;4.27;;;8.60;93.90;;;;;;4998541;28;20857;-89
2021/12/14 02:14:05;;;;;;;7.20;4.47;;;8.60;94.00;;;;;;4999295;28;20457;-87
2021/12/14 02:16:33;;;;;;;6.60;3.40;;;8.50;94.10;;;;;;5006722;28;20407;-88
2021/12/14 02:19:11;;;;;;;8.70;4.40;;;8.60;94.20;;;;;;4998297;28;20446;-86
2021/12/14 02:21:38;;;;;;;8.10;4.07;;;8.60;94.20;;;;;;4979812;28;20430;-86
2021/12/14 02:24:07;;;;;;;6.07;3.63;;;8.60;94.20;;;;;;4997295;28;20422;-87
2021/12/14 02:26:36;;;;;;;5.40;4.03;;;8.60;94.20;;;;;;4997410;28;20411;-87
2021/12/14 02:29:05;;;;;;;6.23;3.70;;;8.60;94.20;;;;;;5012123;28;20968;-87
2021/12/14 02:31:36;;;;;;;5.77;4.00;;;8.60;94.30;;;;;;4997001;28;20439;-86
2021/12/14 02:34:04;;;;;;;6.27;3.80;;;8.60;94.30;;;;;;4998305;28;20474;-86
2021/12/14 02:36:34;;;;;;;8.00;4.60;;;8.70;94.60;;;;;;4983996;28;20412;-86
2021/12/14 02:39:09;;;;;;;6.67;4.10;;;8.70;94.30;;;;;;4999554;28;20423;-87
2021/12/14 02:41:51;;;;;;;8.67;3.97;;;8.70;94.20;;;;;;4996297;28;20486;-87
2021/12/14 02:44:20;;;;;;;5.77;4.07;;;8.70;94.20;;;;;;4997092;28;20422;-87
2021/12/14 02:46:51;;;;;;;8.80;5.17;;;8.70;94.00;;;;;;4996574;28;20431;-87
2021/12/14 02:49:25;;;;;;;6.80;4.67;;;8.70;94.10;;;;;;4998435;28;20477;-87
2021/12/14 02:51:58;;;;;;;8.90;5.20;;;8.70;94.10;;;;;;4997033;28;20565;-86
2021/12/14 02:54:39;;;;;;;7.20;4.70;;;8.70;94.20;;;;;;4996637;28;20500;-87
2021/12/14 02:57:12;;;;;;;5.93;4.10;;;8.70;94.10;;;;;;4979805;28;20424;-87
2021/12/14 02:59:40;;;;;;;6.30;4.17;;;8.70;94.20;;;;;;4996309;28;20407;-87
2021/12/14 03:02:12;;;;;;;7.33;5.10;;;8.70;94.20;;;;;;4980996;28;20797;-87
2021/12/14 03:04:44;;;;;;;8.53;5.10;;;8.70;94.30;;;;;;4982095;28;20478;-87
2021/12/14 03:07:12;;;;;;;11.07;4.70;;;8.60;94.30;;;;;;4999152;28;20430;-87
2021/12/14 03:09:57;;;;;;;7.07;4.50;;;8.60;94.30;;;;;;4997777;28;20419;-87
2021/12/14 03:12:36;;;;;;;8.83;5.53;;;8.60;94.30;;;;;;4999487;28;20792;-87
2021/12/14 03:15:17;;;;;;;9.37;4.67;;;8.60;94.40;;;;;;5002384;28;20518;-86
2021/12/14 03:17:46;;;;;;;8.50;5.60;;;8.60;94.40;;;;;;5013653;28;20399;-85
2021/12/14 03:20:33;;;;;;;10.67;5.70;;;8.60;94.40;;;;;;4997934;28;20411;-87
2021/12/14 03:23:08;;;;;;;14.50;6.10;;;8.60;94.50;;;;;;5014613;28;20411;-89
2021/12/14 03:25:37;;;;;;;9.03;5.47;;;8.70;94.60;;;;;;5014736;28;20410;-87
2021/12/14 03:28:04;;;;;;;8.90;5.50;;;8.70;94.50;;;;;;5013149;28;20460;-87
2021/12/14 03:30:43;;;;;;;8.47;5.70;;;8.70;94.50;;;;;;4995639;28;20463;-87
2021/12/14 03:33:21;;;;;;;9.50;6.27;;;8.70;94.50;;;;;;5011733;28;20439;-87
2021/12/14 03:35:52;;;;;;;10.13;6.57;;;8.70;94.50;;;;;;5009408;28;20466;-87
2021/12/14 03:38:32;;;;;;;12.30;7.03;;;8.70;94.50;;;;;;5001198;28;20542;-87
2021/12/14 03:41:08;;;;;;;10.27;7.20;;;8.70;94.50;;;;;;4998683;28;20406;-87
2021/12/14 03:43:36;;;;;;;8.70;5.50;;;8.70;94.50;;;;;;5001201;28;20419;-87
2021/12/14 03:46:07;;;;;;;12.80;6.50;;;8.70;94.50;;;;;;4984783;28;20425;-87
2021/12/14 03:48:34;;;;;;;11.40;6.60;;;8.70;94.50;;;;;;5015541;28;20419;-89
2021/12/14 03:51:01;;;;;;;11.13;6.40;;;8.70;94.60;;;;;;5004367;28;20430;-88
2021/12/14 03:53:28;;;;;;;9.30;5.83;;;8.70;94.50;;;;;;4985424;28;20505;-88
2021/12/14 03:55:58;;;;;;;13.20;6.33;;;8.60;94.60;;;;;;4986239;28;20459;-87
2021/12/14 03:58:38;;;;;;;12.77;7.67;;;8.60;94.60;;;;;;5001449;28;20760;-86
2021/12/14 04:01:37;;;;;;;13.60;7.50;;;8.70;94.80;;;;;;5002324;28;20439;-87
2021/12/14 04:04:15;;;;;;;13.80;7.13;;;8.60;94.70;;;;;;4977354;28;20449;-87
2021/12/14 04:06:41;;;;;;;11.23;7.83;;;8.60;94.70;;;;;;5016529;28;20426;-87
2021/12/14 04:09:11;;;;;;;12.47;6.80;;;8.60;94.70;;;;;;5015729;28;20407;-86
2021/12/14 04:11:36;;;;;;;10.87;6.93;;;8.60;94.80;;;;;;4998445;28;20435;-89
2021/12/14 04:14:03;;;;;;;10.80;6.13;;;8.60;94.80;;;;;;5015008;28;20459;-86
2021/12/14 04:16:39;;;;;;;13.07;8.40;;;8.60;94.90;;;;;;5015296;28;20394;-87
2021/12/14 04:19:09;;;;;;;15.43;7.60;;;8.60;95.00;;;;;;5013844;28;20423;-87
2021/12/14 04:21:40;;;;;;;16.53;7.63;;;8.70;95.00;;;;;;4998222;28;20458;-89
2021/12/14 04:24:11;;;;;;;13.97;8.37;;;8.60;95.00;;;;;;5011469;28;20446;-87
2021/12/14 04:26:44;;;;;;;15.93;8.90;;;8.70;95.00;;;;;;4994853;28;20415;-86
2021/12/14 04:29:13;;;;;;;18.20;8.57;;;8.70;95.00;;;;;;5002461;28;20433;-86
2021/12/14 04:31:42;;;;;;;16.83;9.07;;;8.70;95.00;;;;;;5000896;28;20449;-86
2021/12/14 04:34:10;;;;;;;17.10;8.57;;;8.70;95.40;;;;;;5000535;28;20463;-86
2021/12/14 04:36:36;;;;;;;18.10;9.80;;;8.70;95.00;;;;;;5003366;28;20411;-87
2021/12/14 04:53:20;;;;;;;20.00;9.53;;;8.70;95.00;;;;;;5008459;28;20438;-87
2021/12/14 04:55:47;;;;;;;16.83;9.20;;;8.70;95.40;;;;;;5009381;28;20454;-87
2021/12/14 04:58:31;;;;;;;17.03;9.50;;;8.70;95.00;;;;;;5010068;28;20410;-89
2021/12/14 05:00:59;;;;;;;16.30;9.43;;;8.70;95.10;;;;;;5002354;28;20416;-87
2021/12/14 05:03:54;;;;;;;18.07;9.63;;;8.70;95.10;;;;;;5000144;28;20384;-87
2021/12/14 05:06:24;;;;;;;19.60;10.97;;;8.70;95.10;;;;;;4989306;28;20506;-87
2021/12/14 05:11:24;;;;;;;17.17;9.20;;;8.70;95.30;;;;;;5015572;28;20434;-88
2021/12/14 05:14:02;;;;;;;18.20;9.80;;;8.70;95.30;;;;;;5012404;28;20419;-87
2021/12/14 05:16:35;;;;;;;16.30;9.37;;;8.70;95.40;;;;;;5001265;28;20407;-88
2021/12/14 05:19:09;;;;;;;22.57;10.77;;;8.70;95.50;;;;;;5000802;28;20419;-87
2021/12/14 05:22:10;;;;;;;18.10;10.83;;;8.70;95.50;;;;;;4984993;28;20518;-88
2021/12/14 05:24:48;;;;;;;15.90;8.60;;;8.70;95.50;;;;;;5000823;28;20528;-87
2021/12/14 05:27:26;;;;;;;18.80;9.20;;;8.60;95.50;;;;;;4984838;28;20407;-87
2021/12/14 05:30:01;;;;;;;13.60;7.57;;;8.60;95.70;;;;;;4985937;28;20425;-86
2021/12/14 05:32:27;;;;;;;16.57;8.80;;;8.60;96.20;;;;;;4992412;28;20434;-88
2021/12/14 05:34:53;;;;;;;23.70;12.60;;;8.60;95.90;;;;;;5017112;28;20574;-88
2021/12/14 05:37:30;;;;;;;17.90;9.23;;;8.60;95.90;;;;;;5001973;28;20478;-88
2021/12/14 05:40:03;;;;;;;17.20;9.70;;;8.60;95.90;;;;;;5001583;28;20434;-87
2021/12/14 05:45:32;;;;;;;14.10;8.80;;;8.60;96.10;;;;;;5015951;28;20454;-86
2021/12/14 05:47:59;;;;;;;15.80;8.97;;;8.60;96.10;;;;;;5015336;28;20905;-89
2021/12/14 05:50:35;;;;;;;19.80;8.37;;;8.60;96.10;;;;;;5014277;28;20430;-86
2021/12/14 05:53:02;;;;;;;19.53;9.10;;;8.60;96.10;;;;;;5009701;28;20430;-87
2021/12/14 05:55:33;;;;;;;23.50;11.50;;;8.60;96.10;;;;;;5007875;28;20543;-86
2021/12/14 05:58:04;;;;;;;16.87;8.87;;;8.60;96.20;;;;;;5004016;28;20466;-87
2021/12/14 06:00:33;;;;;;;19.33;9.30;;;8.60;96.20;;;;;;4988222;28;20422;-86
2021/12/14 06:03:05;;;;;;;20.87;9.20;;;8.60;96.20;;;;;;4987268;28;20913;-87
2021/12/14 06:05:32;;;;;;;21.03;9.33;;;8.60;96.30;;;;;;4989888;28;20426;-87
2021/12/14 06:07:59;;;;;;;20.53;8.80;;;8.60;96.40;;;;;;5004015;28;20538;-89
2021/12/14 06:10:27;;;;;;;17.03;9.83;;;8.60;96.50;;;;;;5008304;28;20450;-87
2021/12/14 06:12:55;;;;;;;21.83;10.00;;;8.60;96.60;;;;;;4992263;28;20454;-88
2021/12/14 06:15:27;;;;;;;14.60;7.73;;;8.60;96.60;;;;;;5020397;28;20458;-87
2021/12/14 06:17:59;;;;;;;24.87;10.40;;;8.60;96.60;;;;;;5023308;28;20488;-86
2021/12/14 06:20:48;;;;;;;17.23;8.80;;;8.60;96.60;;;;;;5018663;28;20468;-87
2021/12/14 06:23:13;;;;;;;17.13;9.30;;;8.60;96.50;;;;;;5020823;28;20437;-85
2021/12/14 06:25:59;;;;;;;16.20;8.53;;;8.50;96.60;;;;;;5012540;28;20958;-83
2021/12/14 06:28:57;;;;;;;17.67;9.37;;;8.50;96.70;;;;;;5032349;28;20434;-85
2021/12/14 06:31:26;;;;;;;16.33;9.47;;;8.50;96.80;;;;;;5029201;28;20445;-85
2021/12/14 06:33:55;;;;;;;23.80;10.97;;;8.50;96.90;;;;;;5033646;28;20489;-85
2021/12/14 06:37:04;;;;;;;16.20;9.47;;;8.50;97.00;;;;;;5030017;28;20427;-84
2021/12/14 06:40:15;;;;;;;17.33;9.80;;;8.50;97.20;;;;;;5023045;28;20429;-86
2021/12/14 06:42:44;;;;;;;16.13;10.80;;;8.50;97.10;;;;;;5005173;28;20708;-85
2021/12/14 06:45:23;;;;;;;19.53;10.10;;;8.50;97.20;;;;;;5021412;28;20445;-84
2021/12/14 06:47:52;;;;;;;29.17;14.20;;;8.50;97.20;;;;;;5033991;28;20546;-88
2021/12/14 06:50:25;;;;;;;32.73;15.27;;;8.50;97.60;;;;;;5023852;28;20450;-85
2021/12/14 06:52:56;;;;;;;19.13;10.80;;;8.50;97.30;;;;;;5003852;28;20433;-89
2021/12/14 07:14:28;;;;;;;21.27;11.27;;;8.50;97.60;;;;;;4974174;28;20434;-79
2021/12/14 07:48:38;;;;;;;14.97;7.57;;;8.40;97.90;;;;;;4903638;29;20522;-78
2021/12/14 07:51:40;;;;;;;21.13;11.73;;;8.40;97.90;;;;;;4884958;29;20511;-78
2021/12/14 08:03:02;;;;;;;;;;;;;;;;;;;;;
2021/12/14 08:08:55;;;;;;;26.37;12.87;;;8.50;97.60;;;;;;5024725;23;20518;-78
2021/12/14 08:14:24;;;;;;;14.27;8.17;;;8.60;97.60;;;;;;4994359;28;20485;-78
2021/12/14 08:17:08;;;;;;;17.40;6.70;;;8.60;97.60;;;;;;4962220;28;20427;-78
2021/12/14 08:19:38;;;;;;;17.30;9.00;;;8.60;97.40;;;;;;4959910;28;20431;-78
2021/12/14 08:22:07;;;;;;;13.47;7.70;;;8.50;97.70;;;;;;4981824;28;20423;-78
2021/12/14 08:24:33;;;;;;;12.17;6.10;;;8.50;97.40;;;;;;4978658;28;20535;-77
2021/12/14 08:27:01;;;;;;;13.33;7.00;;;8.50;97.20;;;;;;4980518;28;20444;-77
2021/12/14 08:29:30;;;;;;;12.03;7.20;;;8.50;97.30;;;;;;4965059;28;20420;-77
2021/12/14 08:32:04;;;;;;;16.43;7.93;;;8.50;97.30;;;;;;4962442;28;20432;-77
2021/12/14 08:34:33;;;;;;;12.57;6.43;;;8.50;97.50;;;;;;4985834;28;20488;-76
2021/12/14 08:37:06;;;;;;;19.80;10.77;;;8.50;97.20;;;;;;4967925;28;20437;-77
2021/12/14 08:39:39;;;;;;;18.63;11.13;;;8.50;97.20;;;;;;4965484;28;20512;-78
2021/12/14 08:42:17;;;;;;;15.07;7.93;;;8.60;97.20;;;;;;4964003;28;20940;-78
2021/12/14 08:44:51;;;;;;;22.33;9.30;;;8.60;96.80;;;;;;4986214;28;20495;-78
2021/12/14 08:47:35;;;;;;;21.63;10.80;;;8.60;96.90;;;;;;4983585;28;20431;-78
2021/12/14 08:50:11;;;;;;;12.87;7.43;;;8.60;97.30;;;;;;4976855;28;20478;-76
2021/12/14 08:52:37;;;;;;;22.20;12.20;;;8.60;96.70;;;;;;4962103;28;20506;-79
2021/12/14 08:55:09;;;;;;;23.20;13.03;;;8.60;96.60;;;;;;4978348;28;20494;-77
2021/12/14 08:57:34;;;;;;;9.67;6.67;;;8.70;96.60;;;;;;4964370;28;20511;-78
2021/12/14 09:00:26;;;;;;;13.87;6.63;;;8.70;96.50;;;;;;4980142;28;20463;-79
2021/12/14 09:02:54;;;;;;;29.93;15.63;;;8.70;96.50;;;;;;4971359;28;20432;-78
2021/12/14 09:05:46;;;;;;;31.77;16.10;;;8.70;96.50;;;;;;4945975;29;20548;-79
2021/12/14 09:08:13;;;;;;;46.17;21.90;;;8.70;96.20;;;;;;4961586;29;20458;-79
2021/12/14 09:10:42;;;;;;;38.67;18.27;;;8.80;96.20;;;;;;4971631;28;20439;-78
2021/12/14 09:13:11;;;;;;;46.03;20.67;;;8.80;96.10;;;;;;4979844;28;20825;-79
2021/12/14 09:15:44;;;;;;;56.77;25.60;;;8.90;96.10;;;;;;4979444;28;21041;-78
2021/12/14 09:18:10;;;;;;;35.80;17.83;;;8.90;96.00;;;;;;4980404;28;20416;-79
2021/12/14 09:20:49;;;;;;;37.87;17.60;;;8.90;96.20;;;;;;4980127;28;20778;-79
2021/12/14 09:23:20;;;;;;;29.23;16.67;;;9.00;95.70;;;;;;4980732;28;20786;-79
2021/12/14 09:25:47;;;;;;;21.40;12.17;;;9.00;95.60;;;;;;4979857;28;20535;-80
2021/12/14 09:28:14;;;;;;;15.83;9.53;;;9.00;95.40;;;;;;4978677;28;20435;-78
2021/12/14 09:30:44;;;;;;;26.37;16.80;;;9.00;94.90;;;;;;4962011;28;20438;-80
2021/12/14 09:33:12;;;;;;;24.83;16.97;;;9.00;95.30;;;;;;4979604;28;20427;-79
2021/12/14 09:35:39;;;;;;;25.03;14.90;;;9.00;95.30;;;;;;4979202;28;20494;-79
2021/12/14 09:38:09;;;;;;;27.80;17.60;;;9.00;95.20;;;;;;4978587;28;20428;-78
2021/12/14 09:40:47;;;;;;;21.57;12.07;;;9.00;95.20;;;;;;4960801;28;20494;-78
2021/12/14 09:43:13;;;;;;;12.60;7.83;;;9.10;95.10;;;;;;4960747;28;20463;-78
2021/12/14 09:45:44;;;;;;;18.43;11.17;;;9.00;95.00;;;;;;4976878;28;22121;-79
2021/12/14 09:48:18;;;;;;;24.43;14.30;;;9.00;95.00;;;;;;4940977;28;20433;-78
2021/12/14 09:50:46;;;;;;;23.43;16.07;;;9.10;94.80;;;;;;4968806;28;20416;-79
2021/12/14 09:53:17;;;;;;;18.80;10.20;;;9.10;94.90;;;;;;4976415;28;20918;-80
2021/12/14 09:55:45;;;;;;;22.53;11.30;;;9.10;94.80;;;;;;4977587;28;20746;-79
2021/12/14 09:58:26;;;;;;;15.90;10.97;;;9.10;94.60;;;;;;4961021;28;20771;-78
2021/12/14 10:01:01;;;;;;;14.00;8.50;;;9.20;94.70;;;;;;4957810;28;20432;-77
2021/12/14 10:03:27;;;;;;;18.03;10.50;;;9.20;94.70;;;;;;4947687;28;20431;-77
2021/12/14 10:05:59;;;;;;;11.87;8.33;;;9.20;94.50;;;;;;4985724;28;20467;-79
2021/12/14 10:08:31;;;;;;;13.53;8.10;;;9.20;94.30;;;;;;4961958;28;20431;-78
2021/12/14 10:11:08;;;;;;;15.10;8.60;;;9.20;94.20;;;;;;4978043;28;20432;-79
2021/12/14 10:13:39;;;;;;;12.00;7.50;;;9.30;94.10;;;;;;4963976;28;20435;-78
2021/12/14 10:16:06;;;;;;;11.60;6.20;;;9.30;94.00;;;;;;4982283;28;20459;-78
2021/12/14 10:18:50;;;;;;;11.90;6.73;;;9.30;94.00;;;;;;4979099;28;20432;-77
2021/12/14 10:21:20;;;;;;;12.53;6.40;;;9.40;93.90;;;;;;4982626;28;20428;-78
2021/12/14 10:23:50;;;;;;;13.10;6.30;;;9.40;93.80;;;;;;4979229;28;20447;-77
2021/12/14 10:26:18;;;;;;;11.90;6.30;;;9.40;93.70;;;;;;4976459;28;20455;-80
2021/12/14 10:28:47;;;;;;;11.50;7.00;;;9.50;93.50;;;;;;4976797;28;20432;-78
2021/12/14 10:31:20;;;;;;;10.43;5.10;;;9.50;93.30;;;;;;4977226;28;20431;-80
2021/12/14 10:33:47;;;;;;;10.30;5.33;;;9.50;93.10;;;;;;4978784;28;20459;-81
2021/12/14 10:36:26;;;;;;;7.57;5.03;;;9.50;93.20;;;;;;4961119;28;20478;-77
2021/12/14 10:39:20;;;;;;;11.53;6.77;;;9.60;93.20;;;;;;4981738;28;20423;-78
2021/12/14 10:44:39;;;;;;;9.10;5.17;;;9.50;93.00;;;;;;4978906;28;20460;-78
2021/12/14 10:47:06;;;;;;;7.67;5.67;;;9.50;93.00;;;;;;4981239;28;20478;-78
2021/12/14 10:49:33;;;;;;;14.70;6.40;;;9.50;92.90;;;;;;4977543;28;20794;-78
2021/12/14 10:52:14;;;;;;;8.77;5.63;;;9.50;93.00;;;;;;4959516;28;20420;-78
2021/12/14 10:54:42;;;;;;;7.33;4.70;;;9.40;92.90;;;;;;4978086;28;20779;-78
2021/12/14 10:57:12;;;;;;;10.93;6.13;;;9.40;93.10;;;;;;4960221;28;20423;-78
2021/12/14 10:59:41;;;;;;;11.23;6.23;;;9.50;93.00;;;;;;4960493;28;20507;-78
2021/12/14 11:02:08;;;;;;;10.57;7.10;;;9.50;92.90;;;;;;4963713;28;20428;-79
2021/12/14 11:04:40;;;;;;;9.70;6.40;;;9.50;92.70;;;;;;4965674;28;20466;-78
2021/12/14 11:07:13;;;;;;;8.50;5.90;;;9.50;92.80;;;;;;4981461;28;20419;-77
2021/12/14 11:09:45;;;;;;;12.67;6.80;;;9.50;92.90;;;;;;4980507;28;20462;-79
2021/12/14 11:12:22;;;;;;;11.67;6.10;;;9.50;92.80;;;;;;4976871;28;20481;-79
2021/12/14 11:14:52;;;;;;;13.50;6.00;;;9.50;92.70;;;;;;5008430;22;20486;-71
2021/12/14 11:20:15;;;;;;;15.57;5.80;;;9.50;92.50;;;;;;4996046;28;20765;-69
2021/12/14 11:22:46;;;;;;;10.30;6.73;;;9.50;92.60;;;;;;4977172;28;20423;-67
2021/12/14 11:25:22;;;;;;;12.43;6.73;;;9.50;92.60;;;;;;4982096;28;20439;-67
2021/12/14 11:27:58;;;;;;;10.33;6.30;;;9.60;92.60;;;;;;4963746;28;20742;-69
2021/12/14 11:30:39;;;;;;;16.77;9.80;;;9.60;92.50;;;;;;4975822;28;20414;-69
2021/12/14 11:33:57;;;;;;;17.33;10.67;;;9.60;92.50;;;;;;4974667;28;20431;-70
2021/12/14 11:36:22;;;;;;;20.17;11.30;;;9.60;92.30;;;;;;4950200;28;20841;-68
2021/12/14 11:38:53;;;;;;;17.00;8.30;;;9.60;92.20;;;;;;4978946;28;20768;-68
2021/12/14 11:41:43;;;;;;;14.40;7.00;;;9.60;92.30;;;;;;4975357;28;20176;-70
2021/12/14 11:44:16;;;;;;;13.50;6.90;;;9.70;92.30;;;;;;4975216;28;21012;-69
2021/12/14 11:47:07;;;;;;;13.20;6.63;;;9.70;92.40;;;;;;4974741;28;20431;-69
2021/12/14 11:50:04;;;;;;;11.10;7.00;;;9.70;92.20;;;;;;4958251;28;20562;-70
2021/12/14 11:52:55;;;;;;;19.80;6.37;;;9.80;92.00;;;;;;4975028;28;21035;-70
2021/12/14 11:55:48;;;;;;;10.27;6.97;;;9.80;92.20;;;;;;4974705;28;20456;-70
2021/12/14 11:58:36;;;;;;;18.97;13.00;;;9.80;92.00;;;;;;4957710;28;20770;-69
2021/12/14 12:01:23;;;;;;;15.30;7.77;;;9.80;92.30;;;;;;4974714;28;20961;-70
2021/12/14 12:03:51;;;;;;;10.17;6.63;;;9.90;92.10;;;;;;4957262;28;20882;-69
2021/12/14 12:09:32;;;;;;;27.43;14.60;;;9.90;92.20;;;;;;4974833;28;20442;-69
2021/12/14 12:12:04;;;;;;;13.77;6.47;;;9.90;91.90;;;;;;4973418;28;20407;-68
2021/12/14 12:14:38;;;;;;;9.20;6.73;;;9.90;91.80;;;;;;4974628;28;20466;-70
2021/12/14 12:17:15;;;;;;;13.23;7.63;;;9.90;91.70;;;;;;4961644;28;20902;-69
2021/12/14 12:20:07;;;;;;;9.97;6.63;;;9.90;91.80;;;;;;4957450;28;20484;-68
2021/12/14 12:22:37;;;;;;;12.80;6.73;;;9.90;91.80;;;;;;4940461;28;20430;-68
2021/12/14 12:25:11;;;;;;;14.73;7.40;;;9.90;91.70;;;;;;4974312;28;20456;-72
2021/12/14 12:27:59;;;;;;;11.67;6.93;;;9.90;91.80;;;;;;4955988;28;20435;-70
2021/12/14 12:30:43;;;;;;;12.47;6.80;;;9.90;91.80;;;;;;4971565;28;20425;-68
2021/12/14 12:33:20;;;;;;;18.10;7.33;;;9.90;91.80;;;;;;4955048;29;20425;-71
2021/12/14 12:36:10;;;;;;;13.13;6.93;;;9.90;91.80;;;;;;4973234;28;20454;-67
2021/12/14 12:38:50;;;;;;;12.67;6.87;;;9.90;91.80;;;;;;4974889;28;20435;-69
2021/12/14 12:41:37;;;;;;;11.80;7.47;;;10.00;91.30;;;;;;4974222;28;20424;-70
2021/12/14 12:44:27;;;;;;;14.37;7.60;;;10.00;91.20;;;;;;4971361;28;20487;-69
2021/12/14 12:47:06;;;;;;;13.73;7.93;;;10.00;91.20;;;;;;4974709;28;20431;-71
2021/12/14 12:49:51;;;;;;;26.33;13.97;;;10.00;91.20;;;;;;4976248;28;20766;-68
2021/12/14 12:52:30;;;;;;;14.40;7.90;;;10.00;91.20;;;;;;4973257;28;20434;-69
2021/12/14 12:55:17;;;;;;;14.97;9.70;;;10.10;91.20;;;;;;4973610;28;20513;-68
2021/12/14 12:57:59;;;;;;;13.20;8.10;;;10.10;91.10;;;;;;4973548;28;20439;-69
2021/12/14 13:00:32;;;;;;;13.20;6.60;;;10.10;91.40;;;;;;4955116;29;20409;-69
2021/12/14 13:03:30;;;;;;;13.87;7.90;;;10.20;91.00;;;;;;4963785;28;20431;-69
2021/12/14 13:06:14;;;;;;;12.23;9.03;;;10.20;91.00;;;;;;4957444;28;20436;-69
2021/12/14 13:08:47;;;;;;;17.83;8.50;;;10.20;90.80;;;;;;4974326;28;20816;-68
2021/12/14 13:11:36;;;;;;;15.47;8.20;;;10.20;90.80;;;;;;4974147;28;20438;-68
2021/12/14 13:14:12;;;;;;;17.80;10.53;;;10.30;90.90;;;;;;4973752;28;20455;-69
2021/12/14 13:16:45;;;;;;;21.40;9.57;;;10.30;90.80;;;;;;4956511;28;20435;-70
2021/12/14 13:19:23;;;;;;;20.13;11.30;;;10.30;90.60;;;;;;4974450;28;20424;-70
2021/12/14 13:22:07;;;;;;;20.73;12.10;;;10.30;90.80;;;;;;4973340;28;20419;-70
2021/12/14 13:24:42;;;;;;;30.37;13.00;;;10.30;90.80;;;;;;4972455;28;20439;-70
2021/12/14 13:27:17;;;;;;;20.57;11.77;;;10.30;90.80;;;;;;4973749;28;20498;-71
2021/12/14 13:29:49;;;;;;;32.47;15.10;;;10.20;90.80;;;;;;4956228;28;20427;-69
2021/12/14 13:32:38;;;;;;;43.43;19.90;;;10.30;90.80;;;;;;4973434;28;20767;-70
2021/12/14 13:35:16;;;;;;;30.17;15.50;;;10.30;90.70;;;;;;4973263;28;20467;-72
2021/12/14 13:38:11;;;;;;;17.57;11.30;;;10.30;90.60;;;;;;4973755;28;20411;-72
2021/12/14 13:40:41;;;;;;;17.83;12.70;;;10.30;90.60;;;;;;4972446;28;20428;-68
2021/12/14 13:43:19;;;;;;;17.33;10.23;;;10.30;90.60;;;;;;4972446;28;20463;-69
2021/12/14 13:45:50;;;;;;;16.57;11.87;;;10.30;90.70;;;;;;4952596;28;20973;-71
2021/12/14 13:48:20;;;;;;;15.07;8.97;;;10.30;90.70;;;;;;4968524;28;20420;-69
2021/12/14 13:50:50;;;;;;;17.50;10.17;;;10.30;90.50;;;;;;4973155;28;20415;-69
2021/12/14 13:53:17;;;;;;;14.73;9.77;;;10.20;90.70;;;;;;4962993;28;20620;-69
2021/12/14 13:55:47;;;;;;;14.87;8.60;;;10.20;90.90;;;;;;4955211;28;20494;-69
2021/12/14 13:58:21;;;;;;;14.63;9.70;;;10.30;91.00;;;;;;4973755;28;20427;-69
2021/12/14 14:00:56;;;;;;;19.73;9.43;;;10.20;91.00;;;;;;4972877;28;20431;-71
2021/12/14 14:03:29;;;;;;;16.70;8.70;;;10.20;90.90;;;;;;4975762;28;20822;-71
2021/12/14 14:05:58;;;;;;;16.10;9.13;;;10.20;91.00;;;;;;4972892;28;20491;-71
2021/12/14 14:08:32;;;;;;;17.03;9.53;;;10.20;91.10;;;;;;4973844;28;20460;-69
2021/12/14 14:10:58;;;;;;;18.37;9.50;;;10.20;91.10;;;;;;4972978;28;20439;-71
2021/12/14 14:13:30;;;;;;;21.57;8.90;;;10.10;91.00;;;;;;4973223;28;20474;-69
2021/12/14 14:15:58;;;;;;;19.07;10.00;;;10.10;91.00;;;;;;4971658;28;20806;-71
2021/12/14 14:18:32;;;;;;;16.67;9.70;;;10.10;91.20;;;;;;4955180;28;20424;-69
2021/12/14 14:21:00;;;;;;;18.47;9.77;;;10.10;91.30;;;;;;4974353;28;20422;-72
2021/12/14 14:23:35;;;;;;;13.33;8.47;;;10.10;91.40;;;;;;4974105;28;20980;-69
2021/12/14 14:26:08;;;;;;;14.27;8.87;;;10.10;91.50;;;;;;4973460;28;20435;-68
2021/12/14 14:28:47;;;;;;;14.20;8.20;;;10.10;91.30;;;;;;4955117;28;20428;-71
2021/12/14 14:31:30;;;;;;;14.47;8.57;;;10.10;91.30;;;;;;4972463;28;20451;-69
2021/12/14 14:33:58;;;;;;;17.43;9.40;;;10.00;91.40;;;;;;4972688;28;20496;-69
2021/12/14 14:36:24;;;;;;;23.97;9.57;;;10.00;91.50;;;;;;4955001;28;20813;-69
2021/12/14 14:38:52;;;;;;;12.00;8.03;;;10.00;91.60;;;;;;4972232;28;20458;-69
2021/12/14 14:41:19;;;;;;;17.50;7.77;;;10.00;91.60;;;;;;4972467;28;20428;-71
2021/12/14 14:44:10;;;;;;;18.97;9.40;;;10.00;91.60;;;;;;4971861;28;20418;-70
2021/12/14 14:46:38;;;;;;;18.77;9.50;;;10.00;91.70;;;;;;4972835;28;20498;-70
2021/12/14 14:49:18;;;;;;;15.83;9.37;;;10.00;91.80;;;;;;4972103;28;20420;-70
2021/12/14 14:51:52;;;;;;;16.50;7.87;;;10.00;91.70;;;;;;4954998;28;20439;-69
2021/12/14 14:54:33;;;;;;;17.03;9.47;;;10.00;91.50;;;;;;4971746;28;20865;-69
2021/12/14 14:57:11;;;;;;;17.17;8.53;;;9.90;92.30;;;;;;4972441;28;20419;-71
2021/12/14 14:59:38;;;;;;;17.50;9.30;;;9.90;92.40;;;;;;4971882;28;20507;-70
2021/12/14 15:02:05;;;;;;;26.27;12.90;;;10.00;92.00;;;;;;4971830;28;20427;-71
2021/12/14 15:04:59;;;;;;;22.87;13.17;;;10.00;92.00;;;;;;4971296;28;20862;-69
2021/12/14 15:08:03;;;;;;;15.90;8.87;;;10.00;92.40;;;;;;4972065;28;20913;-70
2021/12/14 15:10:54;;;;;;;14.87;9.27;;;10.10;91.80;;;;;;4955590;28;20434;-72
2021/12/14 15:13:29;;;;;;;20.90;10.10;;;10.10;91.80;;;;;;4972459;28;20494;-68
2021/12/14 15:16:09;;;;;;;12.63;8.33;;;10.20;92.10;;;;;;4972614;28;20467;-69
2021/12/14 15:18:54;;;;;;;15.87;9.60;;;10.30;91.40;;;;;;4972421;28;20411;-69
2021/12/14 15:21:22;;;;;;;15.10;8.50;;;10.30;91.40;;;;;;4978135;28;20426;-69
2021/12/14 15:23:48;;;;;;;13.87;8.40;;;10.30;91.30;;;;;;4956287;28;20487;-70
2021/12/14 15:26:14;;;;;;;20.80;9.30;;;10.20;91.30;;;;;;4974765;28;20415;-70
2021/12/14 15:28:40;;;;;;;14.70;8.57;;;10.10;91.60;;;;;;4975819;28;20172;-70
2021/12/14 15:31:12;;;;;;;15.60;8.37;;;10.10;91.60;;;;;;4973410;28;20287;-70
2021/12/14 15:33:49;;;;;;;12.60;8.10;;;10.00;91.70;;;;;;4975442;28;20180;-69
2021/12/14 15:36:18;;;;;;;13.87;8.13;;;9.90;92.10;;;;;;4972189;28;20459;-68
2021/12/14 15:38:56;;;;;;;16.50;8.50;;;9.90;92.30;;;;;;4974558;28;20416;-69
2021/12/14 15:41:34;;;;;;;19.47;10.33;;;9.80;92.50;;;;;;4954686;28;20434;-69
2021/12/14 15:44:08;;;;;;;18.80;10.63;;;9.70;92.80;;;;;;4959658;28;20415;-71